createdAt,value
2019-01-04T00:02:02.079Z,80.12
2019-01-04T00:04:28.391Z,79.92
2019-01-04T00:06:54.676Z,79.87
2019-01-04T00:09:20.968Z,79.90
2019-01-04T00:11:47.301Z,79.95
2019-01-04T00:14:13.612Z,80.02
2019-01-04T00:16:39.895Z,80.28
2019-01-04T00:19:06.184Z,80.18
2019-01-04T00:21:32.465Z,80.01
2019-01-04T00:23:58.743Z,79.95
2019-01-04T00:26:25.021Z,79.33
2019-01-04T00:28:51.307Z,79.83
2019-01-04T00:31:17.593Z,79.55
2019-01-04T00:33:43.888Z,80.00
2019-01-04T00:36:10.198Z,80.22
2019-01-04T00:38:36.492Z,80.02
2019-01-04T00:41:02.766Z,80.11
2019-01-04T00:43:29.056Z,80.10
2019-01-04T00:45:55.348Z,80.02
2019-01-04T00:48:21.643Z,79.95
2019-01-04T00:50:47.939Z,80.02
2019-01-04T00:53:14.265Z,80.09
2019-01-04T00:55:40.552Z,79.97
2019-01-04T00:58:06.841Z,79.94
2019-01-04T01:00:33.125Z,79.88
2019-01-04T01:02:59.401Z,79.26
2019-01-04T01:05:25.737Z,79.42
2019-01-04T01:07:52.044Z,78.96
2019-01-04T01:10:18.320Z,79.56
2019-01-04T01:12:44.644Z,79.54
2019-01-04T01:15:10.945Z,79.71
2019-01-04T01:17:37.239Z,79.65
2019-01-04T01:20:03.515Z,79.79
2019-01-04T01:22:29.786Z,80.32
2019-01-04T01:24:56.105Z,79.72
2019-01-04T01:27:22.401Z,80.80
2019-01-04T01:29:48.701Z,81.56
2019-01-04T01:32:15.005Z,78.20
2019-01-04T01:34:41.280Z,78.24
2019-01-04T01:37:07.635Z,78.64
2019-01-04T01:39:33.915Z,78.62
2019-01-04T01:42:00.207Z,78.93
2019-01-04T01:44:26.503Z,78.71
2019-01-04T01:46:52.794Z,78.59
2019-01-04T01:49:19.078Z,79.17
2019-01-04T01:51:45.377Z,78.79
2019-01-04T01:54:11.656Z,78.57
2019-01-04T01:56:37.944Z,78.95
2019-01-04T01:59:04.248Z,78.69
2019-01-04T02:01:30.529Z,78.06
2019-01-04T02:03:56.808Z,78.73
2019-01-04T02:06:23.114Z,77.79
2019-01-04T02:08:49.407Z,77.87
2019-01-04T02:11:15.733Z,78.05
2019-01-04T02:13:41.983Z,77.99
2019-01-04T02:16:08.263Z,77.82
2019-01-04T02:18:34.534Z,77.06
2019-01-04T02:21:00.831Z,77.10
2019-01-04T02:23:27.165Z,77.19
2019-01-04T02:25:53.444Z,76.76
2019-01-04T02:28:19.752Z,76.64
2019-01-04T02:30:46.046Z,76.55
2019-01-04T02:33:12.338Z,76.38
2019-01-04T02:35:38.660Z,76.46
2019-01-04T02:38:04.938Z,76.70
2019-01-04T02:40:31.228Z,76.96
2019-01-04T02:42:57.526Z,77.48
2019-01-04T02:45:23.826Z,77.42
2019-01-04T02:47:50.099Z,78.12
2019-01-04T02:50:16.384Z,78.26
2019-01-04T02:52:42.721Z,78.64
2019-01-04T02:55:09.011Z,79.11
2019-01-04T02:57:35.299Z,79.70
2019-01-04T03:00:01.582Z,80.00
2019-01-04T03:02:27.873Z,80.59
2019-01-04T03:04:54.160Z,81.71
2019-01-04T03:07:20.429Z,83.06
2019-01-04T03:09:46.760Z,83.90
2019-01-04T03:12:13.044Z,84.21
2019-01-04T03:14:39.342Z,84.49
2019-01-04T03:17:05.642Z,85.19
2019-01-04T03:19:31.931Z,85.89
2019-01-04T03:21:58.247Z,87.32
2019-01-04T03:24:24.543Z,87.71
2019-01-04T03:26:50.822Z,87.74
2019-01-04T03:29:17.114Z,88.01
2019-01-04T03:31:43.556Z,88.40
2019-01-04T03:34:09.742Z,88.48
2019-01-04T03:36:36.025Z,88.97
2019-01-04T03:39:02.300Z,88.95
2019-01-04T03:41:28.596Z,88.79
2019-01-04T03:43:54.891Z,88.51
2019-01-04T03:46:21.169Z,88.62
2019-01-04T03:48:47.473Z,88.40
2019-01-04T03:51:13.746Z,88.19
2019-01-04T03:53:40.050Z,88.47
2019-01-04T03:56:06.344Z,89.11
2019-01-04T03:58:32.640Z,88.73
2019-01-04T04:00:58.953Z,88.58
2019-01-04T04:03:25.226Z,88.39
2019-01-04T04:05:51.543Z,88.30
2019-01-04T04:08:17.822Z,88.53
2019-01-04T04:10:44.129Z,88.28
2019-01-04T04:13:10.414Z,88.38
2019-01-04T04:15:36.720Z,87.86
2019-01-04T04:18:03.010Z,87.59
2019-01-04T04:20:29.272Z,87.29
2019-01-04T04:22:55.582Z,87.03
2019-01-04T04:25:21.941Z,86.93
2019-01-04T04:27:48.200Z,86.88
2019-01-04T04:30:14.511Z,86.98
2019-01-04T04:32:40.795Z,86.90
2019-01-04T04:35:07.090Z,86.79
2019-01-04T04:37:33.370Z,86.42
2019-01-04T04:39:59.679Z,86.41
2019-01-04T04:42:25.967Z,86.24
2019-01-04T04:44:52.243Z,86.43
2019-01-04T04:47:18.558Z,86.12
2019-01-04T04:49:44.868Z,85.66
2019-01-04T04:52:11.152Z,85.40
2019-01-04T04:54:37.473Z,85.59
2019-01-04T04:57:03.772Z,85.17
2019-01-04T04:59:30.064Z,85.39
2019-01-04T05:01:56.353Z,85.39
2019-01-04T05:04:22.683Z,84.98
2019-01-04T05:06:48.983Z,84.90
2019-01-04T05:09:15.261Z,85.09
2019-01-04T05:11:41.535Z,84.87
2019-01-04T05:14:07.842Z,84.83
2019-01-04T05:16:34.145Z,84.82
2019-01-04T05:19:00.407Z,84.61
2019-01-04T05:21:26.708Z,84.42
2019-01-04T05:23:52.998Z,84.28
2019-01-04T05:26:19.279Z,83.65
2019-01-04T05:28:45.598Z,83.67
2019-01-04T05:31:11.873Z,83.83
2019-01-04T05:33:38.162Z,84.39
2019-01-04T05:36:04.434Z,84.55
2019-01-04T05:38:30.740Z,84.47
2019-01-04T05:40:57.022Z,84.61
2019-01-04T05:43:23.333Z,85.16
2019-01-04T05:45:49.608Z,85.67
2019-01-04T05:48:15.893Z,85.58
2019-01-04T05:50:43.487Z,85.52
2019-01-04T05:53:09.741Z,86.09
2019-01-04T05:55:36.031Z,86.30
2019-01-04T05:58:02.340Z,86.18
2019-01-04T06:00:28.667Z,86.30
2019-01-04T06:02:54.961Z,86.50
2019-01-04T06:05:21.241Z,86.50
2019-01-04T06:07:47.558Z,86.92
2019-01-04T06:10:13.834Z,87.14
2019-01-04T06:12:40.144Z,87.39
2019-01-04T06:15:06.415Z,88.04
2019-01-04T06:17:32.701Z,88.62
2019-01-04T06:19:58.982Z,88.89
2019-01-04T06:22:25.323Z,88.94
2019-01-04T06:24:51.596Z,88.47
2019-01-04T06:27:17.892Z,88.40
2019-01-04T06:29:44.175Z,88.04
2019-01-04T06:32:10.465Z,88.18
2019-01-04T06:34:36.753Z,88.08
2019-01-04T06:37:03.062Z,88.35
2019-01-04T06:39:29.382Z,88.61
2019-01-04T06:41:55.729Z,89.08
2019-01-04T06:44:21.990Z,89.10
2019-01-04T06:46:48.292Z,88.75
2019-01-04T06:49:14.576Z,88.38
2019-01-04T06:51:40.854Z,88.36
2019-01-04T06:54:07.154Z,88.24
2019-01-04T06:56:33.447Z,87.91
2019-01-04T06:58:59.734Z,87.24
2019-01-04T07:01:26.026Z,87.34
2019-01-04T07:03:52.304Z,87.06
2019-01-04T07:06:18.604Z,87.08
2019-01-04T07:08:44.904Z,86.98
2019-01-04T07:11:11.215Z,86.63
2019-01-04T07:13:37.496Z,87.15
2019-01-04T07:16:03.763Z,86.89
2019-01-04T07:18:30.051Z,86.68
2019-01-04T07:20:56.360Z,87.05
2019-01-04T07:23:22.644Z,86.53
2019-01-04T07:25:48.938Z,86.84
2019-01-04T07:28:15.290Z,86.67
2019-01-04T07:30:41.590Z,86.71
2019-01-04T07:33:07.869Z,86.39
2019-01-04T07:35:34.195Z,85.50
2019-01-04T07:38:00.468Z,84.94
2019-01-04T07:40:26.766Z,84.60
2019-01-04T07:42:53.052Z,84.57
2019-01-04T07:45:19.361Z,84.05
2019-01-04T07:47:45.678Z,83.88
2019-01-04T07:50:11.985Z,84.73
2019-01-04T07:52:38.257Z,83.81
2019-01-04T07:55:04.564Z,83.54
2019-01-04T07:57:30.847Z,83.68
2019-01-04T07:59:57.160Z,83.15
2019-01-04T08:02:23.461Z,83.35
2019-01-04T08:04:49.807Z,82.40
2019-01-04T08:07:16.055Z,82.73
2019-01-04T08:09:42.328Z,82.32
2019-01-04T08:12:08.611Z,82.16
2019-01-04T08:14:34.911Z,80.32
2019-01-04T08:17:01.209Z,79.22
2019-01-04T08:19:27.501Z,78.91
2019-01-04T08:21:53.801Z,78.53
2019-01-04T08:24:20.129Z,78.87
2019-01-04T08:26:46.405Z,79.31
2019-01-04T08:29:12.702Z,79.20
2019-01-04T08:31:38.996Z,79.32
2019-01-04T08:34:05.275Z,79.64
2019-01-04T08:36:31.576Z,79.48
2019-01-04T08:38:57.866Z,79.85
2019-01-04T08:41:24.188Z,79.44
2019-01-04T08:43:50.484Z,78.94
2019-01-04T08:46:16.785Z,79.02
2019-01-04T08:48:43.056Z,78.58
2019-01-04T08:51:09.344Z,78.92
2019-01-04T08:53:35.677Z,78.60
2019-01-04T08:56:01.982Z,78.29
2019-01-04T08:58:28.277Z,78.12
2019-01-04T09:00:54.558Z,78.07
2019-01-04T09:03:20.867Z,78.27
2019-01-04T09:05:47.145Z,78.75
2019-01-04T09:08:13.414Z,79.35
2019-01-04T09:10:39.686Z,77.29
2019-01-04T09:13:05.968Z,76.29
2019-01-04T09:15:32.261Z,75.69
2019-01-04T09:17:58.606Z,75.40
2019-01-04T09:20:24.895Z,73.96
2019-01-04T09:22:51.184Z,73.03
2019-01-04T09:25:17.466Z,72.50
2019-01-04T09:27:43.766Z,71.86
2019-01-04T09:30:10.088Z,71.84
2019-01-04T09:32:36.373Z,72.45
2019-01-04T09:35:02.687Z,72.65
2019-01-04T09:37:28.956Z,72.40
2019-01-04T09:39:55.240Z,72.53
2019-01-04T09:42:21.514Z,72.37
2019-01-04T09:44:47.811Z,71.58
2019-01-04T09:47:14.117Z,70.66
2019-01-04T09:49:40.416Z,71.25
2019-01-04T09:52:06.746Z,72.46
2019-01-04T09:54:33.025Z,71.70
2019-01-04T09:56:59.336Z,72.99
2019-01-04T09:59:25.655Z,73.92
2019-01-04T10:01:51.938Z,73.11
2019-01-04T10:04:18.231Z,73.73
2019-01-04T10:06:44.516Z,74.07
2019-01-04T10:09:10.803Z,74.21
2019-01-04T10:11:37.113Z,73.83
2019-01-04T10:14:03.442Z,74.02
2019-01-04T10:16:29.739Z,74.05
2019-01-04T10:18:56.758Z,74.65
2019-01-04T10:21:22.300Z,75.13
2019-01-04T10:23:48.611Z,75.32
2019-01-04T10:26:14.900Z,74.93
2019-01-04T10:28:41.201Z,75.90
2019-01-04T10:31:07.517Z,76.14
2019-01-04T10:33:33.810Z,76.66
2019-01-04T10:36:00.096Z,76.29
2019-01-04T10:38:26.374Z,76.92
2019-01-04T10:40:52.672Z,76.86
2019-01-04T10:43:18.954Z,76.91
2019-01-04T10:45:45.258Z,75.93
2019-01-04T10:48:11.571Z,75.70
2019-01-04T10:50:37.905Z,75.70
2019-01-04T10:53:04.199Z,74.74
2019-01-04T10:55:30.485Z,75.20
2019-01-04T10:57:56.771Z,76.42
2019-01-04T11:00:23.064Z,77.27
2019-01-04T11:02:49.353Z,77.95
2019-01-04T11:05:15.661Z,77.78
2019-01-04T11:07:41.965Z,78.17
2019-01-04T11:10:08.259Z,78.00
2019-01-04T11:12:34.548Z,78.34
2019-01-04T11:15:00.822Z,78.77
2019-01-04T11:17:27.115Z,77.47
2019-01-04T11:19:53.410Z,77.05
2019-01-04T11:22:19.696Z,77.36
2019-01-04T11:24:46.002Z,77.52
2019-01-04T11:27:12.294Z,76.94
2019-01-04T11:29:38.605Z,75.42
2019-01-04T11:32:04.905Z,75.77
2019-01-04T11:34:31.179Z,75.26
2019-01-04T11:36:57.471Z,74.71
2019-01-04T11:39:23.760Z,75.13
2019-01-04T11:41:50.046Z,75.00
2019-01-04T11:44:16.352Z,76.14
2019-01-04T11:46:42.695Z,76.04
2019-01-04T11:49:08.988Z,76.00
2019-01-04T11:51:35.271Z,75.95
2019-01-04T11:54:01.588Z,76.89
2019-01-04T11:56:27.883Z,75.94
2019-01-04T11:58:54.183Z,76.36
2019-01-04T12:01:20.458Z,77.86
2019-01-04T12:03:46.754Z,78.09
2019-01-04T12:06:13.051Z,78.31
2019-01-04T12:08:39.322Z,78.43
2019-01-04T12:11:05.629Z,78.45
2019-01-04T12:13:31.931Z,78.81
2019-01-04T12:15:58.213Z,79.33
2019-01-04T12:18:24.526Z,79.19
2019-01-04T12:20:50.802Z,79.16
2019-01-04T12:23:17.133Z,79.00
2019-01-04T12:25:43.415Z,79.35
2019-01-04T12:28:09.710Z,79.26
2019-01-04T12:30:35.996Z,79.96
2019-01-04T12:33:02.295Z,79.44
2019-01-04T12:35:28.599Z,79.87
2019-01-04T12:37:54.879Z,78.97
2019-01-04T12:40:21.168Z,78.30
2019-01-04T12:42:47.482Z,78.74
2019-01-04T12:45:13.789Z,79.16
2019-01-04T12:47:40.088Z,78.96
2019-01-04T12:50:06.391Z,79.39
2019-01-04T12:52:32.716Z,78.65
2019-01-04T12:54:59.025Z,78.08
2019-01-04T12:57:25.304Z,77.98
2019-01-04T12:59:51.578Z,78.10
2019-01-04T13:02:17.858Z,78.41
2019-01-04T13:04:44.141Z,78.74
2019-01-04T13:07:10.434Z,79.70
2019-01-04T13:09:36.774Z,80.22
2019-01-04T13:12:03.063Z,79.37
2019-01-04T13:14:29.363Z,79.15
2019-01-04T13:16:55.646Z,78.60
2019-01-04T13:19:25.685Z,79.12
2019-01-04T13:21:48.227Z,79.97
2019-01-04T13:24:14.573Z,80.79
2019-01-04T13:26:40.852Z,80.76
2019-01-04T13:29:07.127Z,80.19
2019-01-04T13:31:33.468Z,79.89
2019-01-04T13:33:59.770Z,80.11
2019-01-04T13:36:26.052Z,80.86
2019-01-04T13:38:52.365Z,81.26
2019-01-04T13:41:18.658Z,81.45
2019-01-04T13:43:44.951Z,81.41
2019-01-04T13:46:11.229Z,81.74
2019-01-04T13:48:37.510Z,81.33
2019-01-04T13:51:03.791Z,81.78
2019-01-04T13:53:30.115Z,82.07
2019-01-04T13:55:56.413Z,82.43
2019-01-04T13:58:22.707Z,82.75
2019-01-04T14:00:49.037Z,82.55
2019-01-04T14:03:15.349Z,83.01
2019-01-04T14:05:41.663Z,83.06
2019-01-04T14:08:07.954Z,83.00
2019-01-04T14:10:34.254Z,82.85
2019-01-04T14:13:00.555Z,82.60
2019-01-04T14:15:26.838Z,82.78
2019-01-04T14:17:53.153Z,83.01
2019-01-04T14:20:19.436Z,83.06
2019-01-04T14:22:45.738Z,82.73
2019-01-04T14:25:12.048Z,82.60
2019-01-04T14:27:38.338Z,82.71
2019-01-04T14:30:11.310Z,82.95
2019-01-04T14:32:37.605Z,82.95
2019-01-04T14:35:03.882Z,82.72
2019-01-04T14:37:30.192Z,82.50
2019-01-04T14:39:56.479Z,82.85
2019-01-04T14:42:22.771Z,83.14
2019-01-04T14:44:49.055Z,83.17
2019-01-04T14:47:15.384Z,83.25
2019-01-04T14:49:41.682Z,83.51
2019-01-04T14:52:07.998Z,83.29
2019-01-04T14:54:34.282Z,82.55
2019-01-04T14:57:00.574Z,82.27
2019-01-04T14:59:26.863Z,82.06
2019-01-04T15:01:53.158Z,82.08
2019-01-04T15:04:19.453Z,82.61
2019-01-04T15:06:45.742Z,82.65
2019-01-04T15:09:12.071Z,82.65
2019-01-04T15:11:38.407Z,82.92
2019-01-04T15:14:04.647Z,83.06
2019-01-04T15:16:30.944Z,83.17
2019-01-04T15:18:57.246Z,83.12
2019-01-04T15:21:23.551Z,83.35
2019-01-04T15:23:49.826Z,83.58
2019-01-04T15:26:16.114Z,84.04
2019-01-04T15:28:42.393Z,84.01
2019-01-04T15:31:08.718Z,84.06
2019-01-04T15:33:35.000Z,84.33
2019-01-04T15:36:01.322Z,84.72
2019-01-04T15:38:27.617Z,84.75
2019-01-04T15:40:53.922Z,84.90
2019-01-04T15:43:20.201Z,84.67
2019-01-04T15:45:46.493Z,85.14
2019-01-04T15:48:12.776Z,85.57
2019-01-04T15:50:39.089Z,85.83
2019-01-04T15:53:05.382Z,85.98
2019-01-04T15:55:31.680Z,85.34
2019-01-04T15:57:57.986Z,84.52
2019-01-04T16:00:24.293Z,83.81
2019-01-04T16:02:50.619Z,83.22
2019-01-04T16:05:16.945Z,81.78
2019-01-04T16:07:43.250Z,81.38
2019-01-04T16:10:09.530Z,81.03
2019-01-04T16:12:35.819Z,80.24
2019-01-04T16:15:02.110Z,79.70
2019-01-04T16:17:28.395Z,79.40
2019-01-04T16:19:54.697Z,79.45
2019-01-04T16:22:20.997Z,78.91
2019-01-04T16:24:47.316Z,78.79
2019-01-04T16:27:13.595Z,79.20
2019-01-04T16:29:39.995Z,79.22
2019-01-04T16:32:06.254Z,78.61
2019-01-04T16:34:32.547Z,78.57
2019-01-04T16:36:58.819Z,78.05
2019-01-04T16:39:25.156Z,78.30
2019-01-04T16:41:51.422Z,77.86
2019-01-04T16:44:17.720Z,77.72
2019-01-04T16:46:44.026Z,77.95
2019-01-04T16:49:10.379Z,78.07
2019-01-04T16:51:36.702Z,78.51
2019-01-04T16:54:03.012Z,78.56
2019-01-04T16:56:29.289Z,78.97
2019-01-04T16:58:55.596Z,79.32
2019-01-04T17:01:21.923Z,79.97
2019-01-04T17:03:48.213Z,80.03
2019-01-04T17:06:14.536Z,79.89
2019-01-04T17:08:40.819Z,80.22
2019-01-04T17:11:07.110Z,80.49
2019-01-04T17:13:33.390Z,80.70
2019-01-04T17:15:59.700Z,80.56
2019-01-04T17:18:26.005Z,80.67
2019-01-04T17:20:52.294Z,80.14
2019-01-04T17:23:18.587Z,80.07
2019-01-04T17:25:44.884Z,80.09
2019-01-04T17:28:11.230Z,79.99
2019-01-04T17:30:37.505Z,80.03
2019-01-04T17:33:03.841Z,79.61
2019-01-04T17:35:30.123Z,79.98
2019-01-04T17:37:56.398Z,79.65
2019-01-04T17:40:22.915Z,78.76
2019-01-04T17:42:49.231Z,76.76
2019-01-04T17:45:15.523Z,76.91
2019-01-04T17:47:41.868Z,76.62
2019-01-04T17:50:08.269Z,76.18
2019-01-04T17:52:34.594Z,76.08
2019-01-04T17:55:00.879Z,75.37
2019-01-04T17:57:27.147Z,76.02
2019-01-04T17:59:53.498Z,76.50
2019-01-04T18:02:19.795Z,75.60
2019-01-04T18:04:46.088Z,75.44
2019-01-04T18:07:12.402Z,75.26
2019-01-04T18:09:38.703Z,75.41
2019-01-04T18:12:05.028Z,74.77
2019-01-04T18:14:31.323Z,75.42
2019-01-04T18:16:57.632Z,75.20
2019-01-04T18:19:23.917Z,74.66
2019-01-04T18:21:50.206Z,75.06
2019-01-04T18:24:16.483Z,75.57
2019-01-04T18:26:42.754Z,75.47
2019-01-04T18:29:09.071Z,76.03
2019-01-04T18:31:35.361Z,76.07
2019-01-04T18:34:01.641Z,76.01
2019-01-04T18:36:27.969Z,76.02
2019-01-04T18:38:54.275Z,75.38
2019-01-04T18:41:20.580Z,75.03
2019-01-04T18:43:46.862Z,74.95
2019-01-04T18:46:13.155Z,74.77
2019-01-04T18:48:39.645Z,74.70
2019-01-04T18:51:05.917Z,74.88
2019-01-04T18:53:32.232Z,74.88
2019-01-04T18:55:58.503Z,75.10
2019-01-04T18:58:25.056Z,75.20
2019-01-04T19:00:51.344Z,75.17
2019-01-04T19:03:19.567Z,75.42
2019-01-04T19:05:45.893Z,75.64
2019-01-04T19:08:12.186Z,74.49
2019-01-04T19:10:38.480Z,75.81
2019-01-04T19:13:04.761Z,74.97
2019-01-04T19:15:31.243Z,73.81
2019-01-04T19:17:57.526Z,74.37
2019-01-04T19:20:23.860Z,74.50
2019-01-04T19:22:50.170Z,73.02
2019-01-04T19:25:16.557Z,73.40
2019-01-04T19:27:42.832Z,74.33
2019-01-04T19:30:09.278Z,74.75
2019-01-04T19:32:35.653Z,74.95
2019-01-04T19:35:01.952Z,73.77
2019-01-04T19:37:28.513Z,72.90
2019-01-04T19:39:54.845Z,72.69
2019-01-04T19:42:21.184Z,73.03
2019-01-04T19:44:47.475Z,72.36
2019-01-04T19:47:16.641Z,71.91
2019-01-04T19:49:42.963Z,72.37
2019-01-04T19:52:09.249Z,71.29
2019-01-04T19:54:35.547Z,71.53
2019-01-04T19:57:01.846Z,71.84
2019-01-04T19:59:28.132Z,71.77
2019-01-04T20:01:55.430Z,71.89
2019-01-04T20:04:21.709Z,70.93
2019-01-04T20:06:48.014Z,71.01
2019-01-04T20:09:14.357Z,70.61
2019-01-04T20:11:40.661Z,70.59
2019-01-04T20:14:06.974Z,70.64
2019-01-04T20:16:33.265Z,70.44
2019-01-04T20:18:59.690Z,70.23
2019-01-04T20:21:25.963Z,70.31
2019-01-04T20:23:52.257Z,70.64
2019-01-04T20:26:18.540Z,70.22
2019-01-04T20:28:44.809Z,69.80
2019-01-04T20:31:11.100Z,69.44
2019-01-04T20:33:37.391Z,69.04
2019-01-04T20:36:03.735Z,69.33
2019-01-04T20:38:30.041Z,69.85
2019-01-04T20:40:56.321Z,70.49
2019-01-04T20:43:22.617Z,70.96
2019-01-04T20:45:48.911Z,70.78
2019-01-04T20:48:15.183Z,70.34
2019-01-04T20:50:41.475Z,70.11
2019-01-04T20:53:07.795Z,69.93
2019-01-04T20:55:34.078Z,69.47
2019-01-04T20:58:00.365Z,69.51
2019-01-04T21:00:26.682Z,69.24
2019-01-04T21:02:53.005Z,69.21
2019-01-04T21:05:19.250Z,69.50
2019-01-04T21:07:45.567Z,68.15
2019-01-04T21:10:13.025Z,68.51
2019-01-04T21:12:38.144Z,69.10
2019-01-04T21:15:04.434Z,70.07
2019-01-04T21:17:30.731Z,70.62
2019-01-04T21:19:57.091Z,70.93
2019-01-04T21:22:23.367Z,72.25
2019-01-04T21:24:49.666Z,72.57
2019-01-04T21:27:15.996Z,74.52
2019-01-04T21:29:42.268Z,75.56
2019-01-04T21:32:08.576Z,75.96
2019-01-04T21:34:34.867Z,77.63
2019-01-04T21:37:01.135Z,77.64
2019-01-04T21:39:27.446Z,78.03
2019-01-04T21:41:53.758Z,78.79
2019-01-04T21:44:20.079Z,79.24
2019-01-04T21:46:46.383Z,79.54
2019-01-04T21:49:12.674Z,79.97
2019-01-04T21:51:39.104Z,80.17
2019-01-04T21:54:05.269Z,80.25
2019-01-04T21:56:31.595Z,80.45
2019-01-04T21:58:57.877Z,80.53
2019-01-04T22:01:24.152Z,80.87
2019-01-04T22:03:50.483Z,80.75
2019-01-04T22:06:16.753Z,80.66
2019-01-04T22:08:43.063Z,80.64
2019-01-04T22:11:09.346Z,80.63
2019-01-04T22:13:35.663Z,80.59
2019-01-04T22:16:01.967Z,80.59
2019-01-04T22:18:28.242Z,80.34
2019-01-04T22:20:54.592Z,80.35
2019-01-04T22:23:20.837Z,80.30
2019-01-04T22:25:47.150Z,80.15
2019-01-04T22:28:13.423Z,79.86
2019-01-04T22:30:39.772Z,79.93
2019-01-04T22:33:06.055Z,79.87
2019-01-04T22:35:32.366Z,79.79
2019-01-04T22:37:58.640Z,79.92
2019-01-04T22:40:24.937Z,79.87
2019-01-04T22:42:51.254Z,79.78
2019-01-04T22:45:17.508Z,80.05
2019-01-04T22:47:43.855Z,80.44
2019-01-04T22:50:10.161Z,80.69
2019-01-04T22:52:36.444Z,80.72
2019-01-04T22:55:02.734Z,80.58
2019-01-04T22:57:29.024Z,80.52
2019-01-04T22:59:55.318Z,80.47
2019-01-04T23:02:21.618Z,80.27
2019-01-04T23:04:47.916Z,79.96
2019-01-04T23:07:14.217Z,78.62
2019-01-04T23:09:40.496Z,77.70
2019-01-04T23:12:06.785Z,77.29
2019-01-04T23:14:33.079Z,77.14
2019-01-04T23:16:59.371Z,77.06
2019-01-04T23:19:25.669Z,76.01
2019-01-04T23:21:53.255Z,75.54
2019-01-04T23:24:18.312Z,75.69
2019-01-04T23:26:44.634Z,75.80
2019-01-04T23:29:10.930Z,75.66
2019-01-04T23:31:37.204Z,75.71
2019-01-04T23:34:03.510Z,75.47
2019-01-04T23:36:29.844Z,75.33
2019-01-04T23:38:56.121Z,75.14
2019-01-04T23:41:22.409Z,74.86
2019-01-04T23:43:48.694Z,74.50
2019-01-04T23:46:14.984Z,74.54
2019-01-04T23:48:41.514Z,73.89
2019-01-04T23:51:07.825Z,73.92
2019-01-04T23:53:34.102Z,73.65
2019-01-04T23:56:00.380Z,73.48
2019-01-04T23:58:26.683Z,73.44
